Terminal Aerodrome Forecast
Issued by NWS Charleston, WV

Current Version | Previous Version | Text Only | Print | Product List | Glossary Off
Versions: 1 2 3 4 5 6 7 8 9 10 11 12 13 14 15 16 17 18 19 20 21 22 23 24 25 26 27 28

000
FTUS41 KRLX 261700
TAFEKN
TAF
KEKN 261738Z 2618/2718 00000KT 5SM -RA BR BKN003 OVC017
     FM262100 26005KT 1 1/2SM -SN BR OVC005
     FM270800 30007KT 2SM -SN BR OVC009
     FM271600 30007KT 3SM -SN BR OVC013
     FM271700 30007KT 6SM -SN BR OVC014=

USA.gov is the U.S. government's official web portal to all federal, state and local government web resources and services.